sensor_id;sensor_type;location;lat;lon;timestamp;P1;durP1;ratioP1;P2;durP2;ratioP2
52458;SDS011;38372;52.902;6.024;2023-03-14T00:02:06;19.92;;;4.50;;
52458;SDS011;38372;52.902;6.024;2023-03-14T00:04:32;14.50;;;4.90;;
52458;SDS011;38372;52.902;6.024;2023-03-14T00:06:58;25.77;;;6.53;;
52458;SDS011;38372;52.902;6.024;2023-03-14T00:09:24;18.75;;;4.45;;
52458;SDS011;38372;52.902;6.024;2023-03-14T00:11:52;19.58;;;4.95;;
52458;SDS011;38372;52.902;6.024;2023-03-14T00:14:18;18.55;;;4.55;;
52458;SDS011;38372;52.902;6.024;2023-03-14T00:16:47;22.75;;;5.65;;
52458;SDS011;38372;52.902;6.024;2023-03-14T00:19:13;22.38;;;4.30;;
52458;SDS011;38372;52.902;6.024;2023-03-14T00:21:39;17.08;;;4.43;;
52458;SDS011;38372;52.902;6.024;2023-03-14T00:24:04;21.20;;;3.70;;
52458;SDS011;38372;52.902;6.024;2023-03-14T00:26:31;30.25;;;5.38;;
52458;SDS011;38372;52.902;6.024;2023-03-14T00:28:57;21.45;;;4.75;;
52458;SDS011;38372;52.902;6.024;2023-03-14T00:31:22;21.92;;;4.05;;
52458;SDS011;38372;52.902;6.024;2023-03-14T00:33:48;23.35;;;4.55;;
52458;SDS011;38372;52.902;6.024;2023-03-14T00:36:16;18.85;;;3.35;;
52458;SDS011;38372;52.902;6.024;2023-03-14T00:38:44;16.42;;;3.55;;
52458;SDS011;38372;52.902;6.024;2023-03-14T00:41:12;17.35;;;4.00;;
52458;SDS011;38372;52.902;6.024;2023-03-14T00:43:40;20.27;;;4.00;;
52458;SDS011;38372;52.902;6.024;2023-03-14T00:46:06;21.52;;;4.20;;
52458;SDS011;38372;52.902;6.024;2023-03-14T00:48:32;15.35;;;3.45;;
52458;SDS011;38372;52.902;6.024;2023-03-14T00:50:58;13.82;;;4.03;;
52458;SDS011;38372;52.902;6.024;2023-03-14T00:53:24;18.92;;;3.40;;
52458;SDS011;38372;52.902;6.024;2023-03-14T00:55:50;19.50;;;4.15;;
52458;SDS011;38372;52.902;6.024;2023-03-14T00:58:17;17.90;;;3.50;;
52458;SDS011;38372;52.902;6.024;2023-03-14T01:00:43;18.33;;;3.58;;
52458;SDS011;38372;52.902;6.024;2023-03-14T01:03:10;20.60;;;5.35;;
52458;SDS011;38372;52.902;6.024;2023-03-14T01:05:37;14.05;;;4.07;;
52458;SDS011;38372;52.902;6.024;2023-03-14T01:08:05;17.25;;;3.67;;
52458;SDS011;38372;52.902;6.024;2023-03-14T01:10:32;18.15;;;3.78;;
52458;SDS011;38372;52.902;6.024;2023-03-14T01:12:59;19.58;;;5.32;;
52458;SDS011;38372;52.902;6.024;2023-03-14T01:15:25;14.18;;;3.22;;
52458;SDS011;38372;52.902;6.024;2023-03-14T01:17:51;11.57;;;2.92;;
52458;SDS011;38372;52.902;6.024;2023-03-14T01:20:17;18.15;;;3.85;;
52458;SDS011;38372;52.902;6.024;2023-03-14T01:22:43;15.60;;;3.00;;
52458;SDS011;38372;52.902;6.024;2023-03-14T01:25:13;19.27;;;4.00;;
52458;SDS011;38372;52.902;6.024;2023-03-14T01:27:40;19.08;;;4.28;;
52458;SDS011;38372;52.902;6.024;2023-03-14T01:30:06;17.15;;;3.35;;
52458;SDS011;38372;52.902;6.024;2023-03-14T01:32:33;12.00;;;3.63;;
52458;SDS011;38372;52.902;6.024;2023-03-14T01:34:59;18.08;;;4.00;;
52458;SDS011;38372;52.902;6.024;2023-03-14T01:37:25;12.80;;;3.00;;
52458;SDS011;38372;52.902;6.024;2023-03-14T01:39:50;10.68;;;3.15;;
52458;SDS011;38372;52.902;6.024;2023-03-14T01:42:16;15.65;;;3.35;;
52458;SDS011;38372;52.902;6.024;2023-03-14T01:44:49;10.75;;;2.42;;
52458;SDS011;38372;52.902;6.024;2023-03-14T01:47:22;12.23;;;2.80;;
52458;SDS011;38372;52.902;6.024;2023-03-14T01:49:53;14.00;;;3.08;;
52458;SDS011;38372;52.902;6.024;2023-03-14T01:52:41;10.05;;;2.83;;
52458;SDS011;38372;52.902;6.024;2023-03-14T01:55:12;15.60;;;3.13;;
52458;SDS011;38372;52.902;6.024;2023-03-14T01:57:50;8.35;;;2.53;;
52458;SDS011;38372;52.902;6.024;2023-03-14T02:00:22;15.13;;;4.63;;
52458;SDS011;38372;52.902;6.024;2023-03-14T02:02:50;8.25;;;2.78;;
52458;SDS011;38372;52.902;6.024;2023-03-14T02:05:21;15.27;;;4.60;;
52458;SDS011;38372;52.902;6.024;2023-03-14T02:07:54;18.50;;;3.38;;
52458;SDS011;38372;52.902;6.024;2023-03-14T02:10:22;14.38;;;2.85;;
52458;SDS011;38372;52.902;6.024;2023-03-14T02:12:50;14.40;;;2.78;;
52458;SDS011;38372;52.902;6.024;2023-03-14T02:15:20;10.88;;;2.53;;
52458;SDS011;38372;52.902;6.024;2023-03-14T02:17:46;9.80;;;2.65;;
52458;SDS011;38372;52.902;6.024;2023-03-14T02:22:42;13.48;;;3.38;;
52458;SDS011;38372;52.902;6.024;2023-03-14T02:25:20;8.57;;;2.55;;
52458;SDS011;38372;52.902;6.024;2023-03-14T02:27:56;12.45;;;2.90;;
52458;SDS011;38372;52.902;6.024;2023-03-14T02:30:24;9.85;;;2.97;;
52458;SDS011;38372;52.902;6.024;2023-03-14T02:32:54;10.90;;;2.13;;
52458;SDS011;38372;52.902;6.024;2023-03-14T02:35:25;13.20;;;3.15;;
52458;SDS011;38372;52.902;6.024;2023-03-14T02:38:00;11.20;;;3.03;;
52458;SDS011;38372;52.902;6.024;2023-03-14T02:40:31;10.57;;;2.47;;
52458;SDS011;38372;52.902;6.024;2023-03-14T02:42:57;13.68;;;2.55;;
52458;SDS011;38372;52.902;6.024;2023-03-14T02:45:28;10.35;;;2.88;;
52458;SDS011;38372;52.902;6.024;2023-03-14T02:48:11;11.05;;;3.67;;
52458;SDS011;38372;52.902;6.024;2023-03-14T02:50:57;9.50;;;2.83;;
52458;SDS011;38372;52.902;6.024;2023-03-14T02:53:25;12.23;;;3.00;;
52458;SDS011;38372;52.902;6.024;2023-03-14T02:55:53;13.23;;;3.60;;
52458;SDS011;38372;52.902;6.024;2023-03-14T02:58:18;12.95;;;3.10;;
52458;SDS011;38372;52.902;6.024;2023-03-14T03:00:45;11.75;;;4.28;;
52458;SDS011;38372;52.902;6.024;2023-03-14T03:03:11;17.70;;;3.95;;
52458;SDS011;38372;52.902;6.024;2023-03-14T03:05:37;20.27;;;3.55;;
52458;SDS011;38372;52.902;6.024;2023-03-14T03:08:03;18.60;;;3.88;;
52458;SDS011;38372;52.902;6.024;2023-03-14T03:10:30;15.43;;;3.45;;
52458;SDS011;38372;52.902;6.024;2023-03-14T03:12:56;13.98;;;3.38;;
52458;SDS011;38372;52.902;6.024;2023-03-14T03:15:22;14.07;;;4.25;;
52458;SDS011;38372;52.902;6.024;2023-03-14T03:17:48;24.40;;;4.35;;
52458;SDS011;38372;52.902;6.024;2023-03-14T03:20:14;16.77;;;3.92;;
52458;SDS011;38372;52.902;6.024;2023-03-14T03:22:40;17.30;;;3.60;;
52458;SDS011;38372;52.902;6.024;2023-03-14T03:25:06;16.90;;;4.22;;
52458;SDS011;38372;52.902;6.024;2023-03-14T03:27:33;25.23;;;5.20;;
52458;SDS011;38372;52.902;6.024;2023-03-14T03:30:00;25.83;;;6.55;;
52458;SDS011;38372;52.902;6.024;2023-03-14T03:32:27;18.20;;;3.60;;
52458;SDS011;38372;52.902;6.024;2023-03-14T03:34:53;23.63;;;5.68;;
52458;SDS011;38372;52.902;6.024;2023-03-14T03:37:19;20.60;;;4.80;;
52458;SDS011;38372;52.902;6.024;2023-03-14T03:39:45;25.15;;;4.43;;
52458;SDS011;38372;52.902;6.024;2023-03-14T03:42:10;20.02;;;4.20;;
52458;SDS011;38372;52.902;6.024;2023-03-14T03:44:36;20.90;;;4.57;;
52458;SDS011;38372;52.902;6.024;2023-03-14T03:47:02;20.45;;;4.88;;
52458;SDS011;38372;52.902;6.024;2023-03-14T03:49:29;23.27;;;4.43;;
52458;SDS011;38372;52.902;6.024;2023-03-14T03:51:57;21.00;;;3.80;;
52458;SDS011;38372;52.902;6.024;2023-03-14T03:54:23;20.33;;;5.32;;
52458;SDS011;38372;52.902;6.024;2023-03-14T03:56:49;18.73;;;5.60;;
52458;SDS011;38372;52.902;6.024;2023-03-14T03:59:15;19.65;;;5.47;;
52458;SDS011;38372;52.902;6.024;2023-03-14T04:01:40;16.40;;;6.50;;
52458;SDS011;38372;52.902;6.024;2023-03-14T04:04:06;21.48;;;7.53;;
52458;SDS011;38372;52.902;6.024;2023-03-14T04:06:32;22.10;;;6.20;;
52458;SDS011;38372;52.902;6.024;2023-03-14T04:08:58;20.85;;;7.45;;
52458;SDS011;38372;52.902;6.024;2023-03-14T04:11:24;16.38;;;6.72;;
52458;SDS011;38372;52.902;6.024;2023-03-14T04:13:50;22.70;;;9.70;;
52458;SDS011;38372;52.902;6.024;2023-03-14T04:16:20;22.98;;;7.47;;
52458;SDS011;38372;52.902;6.024;2023-03-14T04:18:47;13.80;;;6.78;;
52458;SDS011;38372;52.902;6.024;2023-03-14T04:21:13;16.33;;;5.93;;
52458;SDS011;38372;52.902;6.024;2023-03-14T04:23:39;18.70;;;7.32;;
52458;SDS011;38372;52.902;6.024;2023-03-14T04:26:05;20.70;;;7.93;;
52458;SDS011;38372;52.902;6.024;2023-03-14T04:28:31;20.17;;;7.10;;
52458;SDS011;38372;52.902;6.024;2023-03-14T04:30:57;19.15;;;6.20;;
52458;SDS011;38372;52.902;6.024;2023-03-14T04:33:23;18.00;;;6.45;;
52458;SDS011;38372;52.902;6.024;2023-03-14T04:35:49;15.38;;;6.55;;
52458;SDS011;38372;52.902;6.024;2023-03-14T04:40:45;17.70;;;6.40;;
52458;SDS011;38372;52.902;6.024;2023-03-14T04:43:11;17.55;;;6.45;;
52458;SDS011;38372;52.902;6.024;2023-03-14T04:45:37;15.45;;;5.50;;
52458;SDS011;38372;52.902;6.024;2023-03-14T04:48:06;16.25;;;4.72;;
52458;SDS011;38372;52.902;6.024;2023-03-14T04:50:32;15.57;;;5.35;;
52458;SDS011;38372;52.902;6.024;2023-03-14T04:52:58;12.82;;;5.55;;
52458;SDS011;38372;52.902;6.024;2023-03-14T04:55:23;11.60;;;4.18;;
52458;SDS011;38372;52.902;6.024;2023-03-14T04:57:49;18.88;;;5.40;;
52458;SDS011;38372;52.902;6.024;2023-03-14T05:00:15;8.90;;;3.80;;
52458;SDS011;38372;52.902;6.024;2023-03-14T05:02:43;19.48;;;5.07;;
52458;SDS011;38372;52.902;6.024;2023-03-14T05:05:09;19.50;;;6.43;;
52458;SDS011;38372;52.902;6.024;2023-03-14T05:07:35;12.98;;;6.22;;
52458;SDS011;38372;52.902;6.024;2023-03-14T05:10:01;19.27;;;6.13;;
52458;SDS011;38372;52.902;6.024;2023-03-14T05:12:27;18.42;;;6.13;;
52458;SDS011;38372;52.902;6.024;2023-03-14T05:14:53;17.02;;;6.65;;
52458;SDS011;38372;52.902;6.024;2023-03-14T05:17:19;17.63;;;6.85;;
52458;SDS011;38372;52.902;6.024;2023-03-14T05:19:45;18.73;;;6.88;;
52458;SDS011;38372;52.902;6.024;2023-03-14T05:22:11;15.40;;;6.35;;
52458;SDS011;38372;52.902;6.024;2023-03-14T05:24:37;20.17;;;8.25;;
52458;SDS011;38372;52.902;6.024;2023-03-14T05:27:03;18.48;;;7.13;;
52458;SDS011;38372;52.902;6.024;2023-03-14T05:29:29;20.27;;;6.93;;
52458;SDS011;38372;52.902;6.024;2023-03-14T05:31:55;15.98;;;6.63;;
52458;SDS011;38372;52.902;6.024;2023-03-14T05:34:21;17.58;;;7.03;;
52458;SDS011;38372;52.902;6.024;2023-03-14T05:36:47;20.83;;;8.63;;
52458;SDS011;38372;52.902;6.024;2023-03-14T05:39:12;16.10;;;6.43;;
52458;SDS011;38372;52.902;6.024;2023-03-14T05:41:38;17.15;;;7.45;;
52458;SDS011;38372;52.902;6.024;2023-03-14T05:44:04;20.98;;;7.22;;
52458;SDS011;38372;52.902;6.024;2023-03-14T05:46:30;20.98;;;6.95;;
52458;SDS011;38372;52.902;6.024;2023-03-14T05:48:56;15.40;;;7.10;;
52458;SDS011;38372;52.902;6.024;2023-03-14T05:51:23;20.20;;;7.22;;
52458;SDS011;38372;52.902;6.024;2023-03-14T05:53:49;12.07;;;6.57;;
52458;SDS011;38372;52.902;6.024;2023-03-14T05:56:15;16.23;;;7.18;;
52458;SDS011;38372;52.902;6.024;2023-03-14T05:58:40;18.15;;;8.00;;
52458;SDS011;38372;52.902;6.024;2023-03-14T06:01:06;12.45;;;6.03;;
52458;SDS011;38372;52.902;6.024;2023-03-14T06:03:33;14.18;;;7.03;;
52458;SDS011;38372;52.902;6.024;2023-03-14T06:05:59;14.82;;;6.93;;
52458;SDS011;38372;52.902;6.024;2023-03-14T06:08:25;22.38;;;7.25;;
52458;SDS011;38372;52.902;6.024;2023-03-14T06:10:51;17.33;;;7.35;;
52458;SDS011;38372;52.902;6.024;2023-03-14T06:13:17;13.63;;;6.57;;
52458;SDS011;38372;52.902;6.024;2023-03-14T06:15:43;16.67;;;7.18;;
52458;SDS011;38372;52.902;6.024;2023-03-14T06:18:09;13.05;;;5.95;;
52458;SDS011;38372;52.902;6.024;2023-03-14T06:20:36;13.15;;;5.53;;
52458;SDS011;38372;52.902;6.024;2023-03-14T06:23:04;15.73;;;7.82;;
52458;SDS011;38372;52.902;6.024;2023-03-14T06:25:34;12.85;;;5.57;;
52458;SDS011;38372;52.902;6.024;2023-03-14T06:28:00;13.65;;;5.70;;
52458;SDS011;38372;52.902;6.024;2023-03-14T06:30:26;10.30;;;3.90;;
52458;SDS011;38372;52.902;6.024;2023-03-14T06:32:52;8.57;;;3.65;;
52458;SDS011;38372;52.902;6.024;2023-03-14T06:35:18;8.13;;;2.53;;
52458;SDS011;38372;52.902;6.024;2023-03-14T06:37:44;10.68;;;3.78;;
52458;SDS011;38372;52.902;6.024;2023-03-14T06:40:10;6.00;;;1.70;;
52458;SDS011;38372;52.902;6.024;2023-03-14T06:42:46;7.47;;;2.05;;
52458;SDS011;38372;52.902;6.024;2023-03-14T06:45:12;8.90;;;1.30;;
52458;SDS011;38372;52.902;6.024;2023-03-14T06:47:38;8.80;;;1.30;;
52458;SDS011;38372;52.902;6.024;2023-03-14T06:50:08;6.70;;;1.42;;
52458;SDS011;38372;52.902;6.024;2023-03-14T06:52:35;7.93;;;1.33;;
52458;SDS011;38372;52.902;6.024;2023-03-14T06:55:01;11.88;;;1.67;;
52458;SDS011;38372;52.902;6.024;2023-03-14T06:57:27;11.43;;;1.48;;
52458;SDS011;38372;52.902;6.024;2023-03-14T06:59:53;9.02;;;1.73;;
52458;SDS011;38372;52.902;6.024;2023-03-14T07:02:19;9.27;;;1.30;;
52458;SDS011;38372;52.902;6.024;2023-03-14T07:04:44;7.55;;;2.47;;
52458;SDS011;38372;52.902;6.024;2023-03-14T07:07:10;10.23;;;1.65;;
52458;SDS011;38372;52.902;6.024;2023-03-14T07:09:36;8.80;;;0.98;;
52458;SDS011;38372;52.902;6.024;2023-03-14T07:12:02;8.13;;;1.25;;
52458;SDS011;38372;52.902;6.024;2023-03-14T07:14:29;11.13;;;1.15;;
52458;SDS011;38372;52.902;6.024;2023-03-14T07:16:55;6.43;;;1.05;;
52458;SDS011;38372;52.902;6.024;2023-03-14T07:19:21;7.85;;;1.10;;
52458;SDS011;38372;52.902;6.024;2023-03-14T07:21:47;4.57;;;1.13;;
52458;SDS011;38372;52.902;6.024;2023-03-14T07:24:12;8.60;;;1.10;;
52458;SDS011;38372;52.902;6.024;2023-03-14T07:26:38;6.82;;;1.25;;
52458;SDS011;38372;52.902;6.024;2023-03-14T07:29:04;8.13;;;1.02;;
52458;SDS011;38372;52.902;6.024;2023-03-14T07:31:30;5.32;;;0.60;;
52458;SDS011;38372;52.902;6.024;2023-03-14T07:33:56;2.97;;;0.65;;
52458;SDS011;38372;52.902;6.024;2023-03-14T07:36:22;5.78;;;1.05;;
52458;SDS011;38372;52.902;6.024;2023-03-14T07:38:48;9.23;;;1.42;;
52458;SDS011;38372;52.902;6.024;2023-03-14T07:41:14;3.70;;;0.60;;
52458;SDS011;38372;52.902;6.024;2023-03-14T07:43:40;7.65;;;0.90;;
52458;SDS011;38372;52.902;6.024;2023-03-14T07:46:06;7.47;;;1.00;;
52458;SDS011;38372;52.902;6.024;2023-03-14T07:48:32;6.18;;;0.82;;
52458;SDS011;38372;52.902;6.024;2023-03-14T07:50:58;6.30;;;0.85;;
52458;SDS011;38372;52.902;6.024;2023-03-14T07:53:23;5.03;;;0.80;;
52458;SDS011;38372;52.902;6.024;2023-03-14T07:55:50;3.75;;;0.80;;
52458;SDS011;38372;52.902;6.024;2023-03-14T07:58:17;4.88;;;0.60;;
52458;SDS011;38372;52.902;6.024;2023-03-14T08:00:43;4.15;;;0.75;;
52458;SDS011;38372;52.902;6.024;2023-03-14T08:03:09;3.80;;;0.88;;
52458;SDS011;38372;52.902;6.024;2023-03-14T08:05:35;4.85;;;0.90;;
52458;SDS011;38372;52.902;6.024;2023-03-14T08:08:02;5.05;;;1.05;;
52458;SDS011;38372;52.902;6.024;2023-03-14T08:10:28;5.85;;;1.05;;
52458;SDS011;38372;52.902;6.024;2023-03-14T08:12:55;6.03;;;1.85;;
52458;SDS011;38372;52.902;6.024;2023-03-14T08:15:24;5.80;;;0.82;;
52458;SDS011;38372;52.902;6.024;2023-03-14T08:17:51;8.05;;;1.10;;
52458;SDS011;38372;52.902;6.024;2023-03-14T08:20:18;3.75;;;0.60;;
52458;SDS011;38372;52.902;6.024;2023-03-14T08:25:14;7.15;;;1.88;;
52458;SDS011;38372;52.902;6.024;2023-03-14T08:27:40;5.47;;;1.27;;
52458;SDS011;38372;52.902;6.024;2023-03-14T08:30:10;4.60;;;1.13;;
52458;SDS011;38372;52.902;6.024;2023-03-14T08:32:38;6.85;;;0.73;;
52458;SDS011;38372;52.902;6.024;2023-03-14T08:35:05;2.70;;;0.73;;
52458;SDS011;38372;52.902;6.024;2023-03-14T08:37:32;12.25;;;1.52;;
52458;SDS011;38372;52.902;6.024;2023-03-14T08:40:02;10.40;;;1.27;;
52458;SDS011;38372;52.902;6.024;2023-03-14T08:42:34;7.18;;;1.15;;
52458;SDS011;38372;52.902;6.024;2023-03-14T08:45:01;7.40;;;1.10;;
52458;SDS011;38372;52.902;6.024;2023-03-14T08:47:27;5.90;;;1.15;;
52458;SDS011;38372;52.902;6.024;2023-03-14T08:49:54;10.85;;;1.30;;
52458;SDS011;38372;52.902;6.024;2023-03-14T08:52:20;8.85;;;2.17;;
52458;SDS011;38372;52.902;6.024;2023-03-14T08:54:46;14.23;;;2.00;;
52458;SDS011;38372;52.902;6.024;2023-03-14T08:57:12;12.85;;;2.75;;
52458;SDS011;38372;52.902;6.024;2023-03-14T08:59:37;8.25;;;2.22;;
52458;SDS011;38372;52.902;6.024;2023-03-14T09:02:03;11.90;;;1.98;;
52458;SDS011;38372;52.902;6.024;2023-03-14T09:04:29;5.20;;;1.58;;
52458;SDS011;38372;52.902;6.024;2023-03-14T09:06:56;14.65;;;2.55;;
52458;SDS011;38372;52.902;6.024;2023-03-14T09:09:23;8.57;;;1.80;;
52458;SDS011;38372;52.902;6.024;2023-03-14T09:11:49;13.50;;;2.38;;
52458;SDS011;38372;52.902;6.024;2023-03-14T09:14:15;13.25;;;2.17;;
52458;SDS011;38372;52.902;6.024;2023-03-14T09:16:41;10.52;;;1.98;;
52458;SDS011;38372;52.902;6.024;2023-03-14T09:19:07;12.43;;;2.90;;
52458;SDS011;38372;52.902;6.024;2023-03-14T09:21:32;16.05;;;2.70;;
52458;SDS011;38372;52.902;6.024;2023-03-14T09:23:58;16.23;;;2.28;;
52458;SDS011;38372;52.902;6.024;2023-03-14T09:26:24;14.05;;;2.17;;
52458;SDS011;38372;52.902;6.024;2023-03-14T09:28:50;11.80;;;1.95;;
52458;SDS011;38372;52.902;6.024;2023-03-14T09:31:16;13.05;;;3.42;;
52458;SDS011;38372;52.902;6.024;2023-03-14T09:33:42;11.63;;;2.63;;
52458;SDS011;38372;52.902;6.024;2023-03-14T09:36:07;18.40;;;3.75;;
52458;SDS011;38372;52.902;6.024;2023-03-14T09:38:34;19.48;;;3.63;;
52458;SDS011;38372;52.902;6.024;2023-03-14T09:41:00;17.45;;;4.22;;
52458;SDS011;38372;52.902;6.024;2023-03-14T09:43:31;18.55;;;4.55;;
52458;SDS011;38372;52.902;6.024;2023-03-14T09:46:00;26.48;;;5.93;;
52458;SDS011;38372;52.902;6.024;2023-03-14T09:48:29;13.98;;;2.92;;
52458;SDS011;38372;52.902;6.024;2023-03-14T09:50:58;17.57;;;2.87;;
52458;SDS011;38372;52.902;6.024;2023-03-14T09:53:39;14.88;;;2.92;;
52458;SDS011;38372;52.902;6.024;2023-03-14T09:56:12;15.13;;;3.83;;
52458;SDS011;38372;52.902;6.024;2023-03-14T09:58:48;21.05;;;4.60;;
52458;SDS011;38372;52.902;6.024;2023-03-14T10:01:36;16.60;;;3.05;;
52458;SDS011;38372;52.902;6.024;2023-03-14T10:04:13;14.93;;;3.45;;
52458;SDS011;38372;52.902;6.024;2023-03-14T10:06:42;14.15;;;2.88;;
52458;SDS011;38372;52.902;6.024;2023-03-14T10:09:17;18.77;;;3.00;;
52458;SDS011;38372;52.902;6.024;2023-03-14T10:12:02;18.42;;;4.05;;
52458;SDS011;38372;52.902;6.024;2023-03-14T10:14:35;22.88;;;4.60;;
52458;SDS011;38372;52.902;6.024;2023-03-14T10:17:10;14.27;;;3.10;;
52458;SDS011;38372;52.902;6.024;2023-03-14T10:19:37;20.13;;;3.28;;
52458;SDS011;38372;52.902;6.024;2023-03-14T10:22:18;17.30;;;3.50;;
52458;SDS011;38372;52.902;6.024;2023-03-14T10:24:45;14.40;;;2.80;;
52458;SDS011;38372;52.902;6.024;2023-03-14T10:27:18;11.32;;;3.03;;
52458;SDS011;38372;52.902;6.024;2023-03-14T10:30:47;13.90;;;3.00;;
52458;SDS011;38372;52.902;6.024;2023-03-14T10:33:07;11.68;;;2.40;;
52458;SDS011;38372;52.902;6.024;2023-03-14T10:35:35;13.75;;;2.58;;
52458;SDS011;38372;52.902;6.024;2023-03-14T10:38:01;13.52;;;2.45;;
52458;SDS011;38372;52.902;6.024;2023-03-14T10:40:30;12.70;;;3.08;;
52458;SDS011;38372;52.902;6.024;2023-03-14T10:43:03;14.50;;;2.60;;
52458;SDS011;38372;52.902;6.024;2023-03-14T10:45:32;10.60;;;2.22;;
52458;SDS011;38372;52.902;6.024;2023-03-14T10:48:22;15.63;;;2.60;;
52458;SDS011;38372;52.902;6.024;2023-03-14T10:50:59;11.65;;;2.60;;
52458;SDS011;38372;52.902;6.024;2023-03-14T10:53:45;13.52;;;3.03;;
52458;SDS011;38372;52.902;6.024;2023-03-14T10:56:26;12.60;;;2.15;;
52458;SDS011;38372;52.902;6.024;2023-03-14T10:58:58;8.88;;;2.63;;
52458;SDS011;38372;52.902;6.024;2023-03-14T11:15:38;16.27;;;2.55;;
52458;SDS011;38372;52.902;6.024;2023-03-14T11:18:47;8.68;;;1.67;;
52458;SDS011;38372;52.902;6.024;2023-03-14T11:27:00;13.45;;;2.47;;
52458;SDS011;38372;52.902;6.024;2023-03-14T11:29:41;12.30;;;2.10;;
52458;SDS011;38372;52.902;6.024;2023-03-14T11:35:16;9.63;;;1.73;;
52458;SDS011;38372;52.902;6.024;2023-03-14T11:37:52;7.63;;;1.50;;
52458;SDS011;38372;52.902;6.024;2023-03-14T11:40:39;7.85;;;1.80;;
52458;SDS011;38372;52.902;6.024;2023-03-14T11:43:11;6.32;;;1.10;;
52458;SDS011;38372;52.902;6.024;2023-03-14T11:45:51;7.40;;;1.10;;
52458;SDS011;38372;52.902;6.024;2023-03-14T11:48:33;4.85;;;1.35;;
52458;SDS011;38372;52.902;6.024;2023-03-14T11:51:04;6.07;;;1.00;;
52458;SDS011;38372;52.902;6.024;2023-03-14T11:56:17;8.65;;;1.40;;
52458;SDS011;38372;52.902;6.024;2023-03-14T11:58:57;8.52;;;1.42;;
52458;SDS011;38372;52.902;6.024;2023-03-14T12:01:33;6.60;;;1.40;;
52458;SDS011;38372;52.902;6.024;2023-03-14T12:04:18;5.95;;;1.20;;
52458;SDS011;38372;52.902;6.024;2023-03-14T12:07:37;5.97;;;1.48;;
52458;SDS011;38372;52.902;6.024;2023-03-14T12:10:13;7.95;;;1.65;;
52458;SDS011;38372;52.902;6.024;2023-03-14T12:12:39;6.93;;;1.38;;
52458;SDS011;38372;52.902;6.024;2023-03-14T12:15:05;5.28;;;1.45;;
52458;SDS011;38372;52.902;6.024;2023-03-14T12:17:42;6.70;;;1.38;;
52458;SDS011;38372;52.902;6.024;2023-03-14T12:25:24;7.05;;;1.20;;
52458;SDS011;38372;52.902;6.024;2023-03-14T12:41:17;9.70;;;1.55;;
52458;SDS011;38372;52.902;6.024;2023-03-14T12:49:44;4.28;;;1.10;;
52458;SDS011;38372;52.902;6.024;2023-03-14T12:52:36;8.18;;;1.55;;
52458;SDS011;38372;52.902;6.024;2023-03-14T12:55:10;6.13;;;1.67;;
52458;SDS011;38372;52.902;6.024;2023-03-14T12:58:02;6.50;;;1.38;;
52458;SDS011;38372;52.902;6.024;2023-03-14T13:00:34;8.23;;;1.33;;
52458;SDS011;38372;52.902;6.024;2023-03-14T13:03:21;3.90;;;1.13;;
52458;SDS011;38372;52.902;6.024;2023-03-14T13:05:56;6.88;;;1.20;;
52458;SDS011;38372;52.902;6.024;2023-03-14T13:11:15;4.93;;;1.10;;
52458;SDS011;38372;52.902;6.024;2023-03-14T13:13:56;5.47;;;1.73;;
52458;SDS011;38372;52.902;6.024;2023-03-14T13:16:24;6.15;;;1.40;;
52458;SDS011;38372;52.902;6.024;2023-03-14T13:18:50;7.53;;;1.52;;
52458;SDS011;38372;52.902;6.024;2023-03-14T13:21:38;6.05;;;1.80;;
52458;SDS011;38372;52.902;6.024;2023-03-14T13:24:05;7.90;;;1.35;;
52458;SDS011;38372;52.902;6.024;2023-03-14T13:26:36;9.13;;;1.52;;
52458;SDS011;38372;52.902;6.024;2023-03-14T13:29:24;8.65;;;1.70;;
52458;SDS011;38372;52.902;6.024;2023-03-14T13:31:50;6.47;;;1.50;;
52458;SDS011;38372;52.902;6.024;2023-03-14T13:34:19;6.63;;;1.30;;
52458;SDS011;38372;52.902;6.024;2023-03-14T13:36:45;7.47;;;1.50;;
52458;SDS011;38372;52.902;6.024;2023-03-14T13:39:17;12.40;;;2.08;;
52458;SDS011;38372;52.902;6.024;2023-03-14T13:41:49;7.35;;;2.30;;
52458;SDS011;38372;52.902;6.024;2023-03-14T13:44:17;8.30;;;1.20;;
52458;SDS011;38372;52.902;6.024;2023-03-14T13:46:51;7.38;;;1.55;;
52458;SDS011;38372;52.902;6.024;2023-03-14T13:49:22;7.53;;;1.90;;
52458;SDS011;38372;52.902;6.024;2023-03-14T13:51:50;8.30;;;2.50;;
52458;SDS011;38372;52.902;6.024;2023-03-14T13:54:19;7.75;;;1.55;;
52458;SDS011;38372;52.902;6.024;2023-03-14T13:56:46;5.20;;;0.80;;
52458;SDS011;38372;52.902;6.024;2023-03-14T14:01:52;4.43;;;1.45;;
52458;SDS011;38372;52.902;6.024;2023-03-14T14:04:20;5.75;;;1.23;;
52458;SDS011;38372;52.902;6.024;2023-03-14T14:16:57;8.00;;;1.60;;
52458;SDS011;38372;52.902;6.024;2023-03-14T14:19:25;6.28;;;1.95;;
52458;SDS011;38372;52.902;6.024;2023-03-14T14:21:53;4.35;;;1.35;;
52458;SDS011;38372;52.902;6.024;2023-03-14T14:24:19;7.32;;;1.58;;
52458;SDS011;38372;52.902;6.024;2023-03-14T14:26:50;5.90;;;1.75;;
52458;SDS011;38372;52.902;6.024;2023-03-14T14:29:24;7.10;;;1.55;;
52458;SDS011;38372;52.902;6.024;2023-03-14T14:37:40;6.07;;;1.13;;
52458;SDS011;38372;52.902;6.024;2023-03-14T14:40:19;7.55;;;1.23;;
52458;SDS011;38372;52.902;6.024;2023-03-14T14:42:47;11.57;;;1.83;;
52458;SDS011;38372;52.902;6.024;2023-03-14T14:45:21;6.53;;;1.95;;
52458;SDS011;38372;52.902;6.024;2023-03-14T14:50:29;5.82;;;1.30;;
52458;SDS011;38372;52.902;6.024;2023-03-14T14:52:56;7.30;;;2.28;;
52458;SDS011;38372;52.902;6.024;2023-03-14T14:55:28;8.10;;;1.77;;
52458;SDS011;38372;52.902;6.024;2023-03-14T14:58:11;5.25;;;1.55;;
52458;SDS011;38372;52.902;6.024;2023-03-14T15:00:55;8.38;;;1.92;;
52458;SDS011;38372;52.902;6.024;2023-03-14T15:03:21;12.63;;;2.10;;
52458;SDS011;38372;52.902;6.024;2023-03-14T15:05:47;10.93;;;2.92;;
52458;SDS011;38372;52.902;6.024;2023-03-14T15:08:13;13.38;;;2.08;;
52458;SDS011;38372;52.902;6.024;2023-03-14T15:10:39;6.00;;;1.48;;
52458;SDS011;38372;52.902;6.024;2023-03-14T15:13:05;15.77;;;2.20;;
52458;SDS011;38372;52.902;6.024;2023-03-14T15:15:31;12.27;;;2.90;;
52458;SDS011;38372;52.902;6.024;2023-03-14T15:17:57;9.65;;;1.92;;
52458;SDS011;38372;52.902;6.024;2023-03-14T15:20:23;7.80;;;1.80;;
52458;SDS011;38372;52.902;6.024;2023-03-14T15:22:49;17.20;;;3.03;;
52458;SDS011;38372;52.902;6.024;2023-03-14T15:25:15;7.55;;;2.00;;
52458;SDS011;38372;52.902;6.024;2023-03-14T15:27:41;7.25;;;1.85;;
52458;SDS011;38372;52.902;6.024;2023-03-14T15:30:11;12.25;;;5.10;;
52458;SDS011;38372;52.902;6.024;2023-03-14T15:32:39;17.90;;;6.63;;
52458;SDS011;38372;52.902;6.024;2023-03-14T15:35:05;6.88;;;2.15;;
52458;SDS011;38372;52.902;6.024;2023-03-14T15:37:32;7.57;;;1.80;;
52458;SDS011;38372;52.902;6.024;2023-03-14T15:39:58;4.57;;;1.05;;
52458;SDS011;38372;52.902;6.024;2023-03-14T15:42:24;4.63;;;1.20;;
52458;SDS011;38372;52.902;6.024;2023-03-14T15:44:49;8.23;;;1.60;;
52458;SDS011;38372;52.902;6.024;2023-03-14T15:47:15;11.25;;;2.92;;
52458;SDS011;38372;52.902;6.024;2023-03-14T15:49:41;14.07;;;3.33;;
52458;SDS011;38372;52.902;6.024;2023-03-14T15:52:07;6.03;;;2.10;;
52458;SDS011;38372;52.902;6.024;2023-03-14T15:54:34;8.32;;;2.45;;
52458;SDS011;38372;52.902;6.024;2023-03-14T15:57:00;11.10;;;2.60;;
52458;SDS011;38372;52.902;6.024;2023-03-14T15:59:26;10.05;;;4.28;;
52458;SDS011;38372;52.902;6.024;2023-03-14T16:01:52;11.35;;;3.80;;
52458;SDS011;38372;52.902;6.024;2023-03-14T16:04:17;9.90;;;2.85;;
52458;SDS011;38372;52.902;6.024;2023-03-14T16:06:44;12.40;;;2.25;;
52458;SDS011;38372;52.902;6.024;2023-03-14T16:09:10;5.57;;;1.50;;
52458;SDS011;38372;52.902;6.024;2023-03-14T16:11:37;10.73;;;2.10;;